sensor_id;sensor_type;location;lat;lon;timestamp;temperature;humidity
18408;DHT22;9330;52.210;21.174;2023-05-09T00:01:42;3.50;99.90
18408;DHT22;9330;52.210;21.174;2023-05-09T00:04:09;3.50;99.90
18408;DHT22;9330;52.210;21.174;2023-05-09T00:06:36;3.40;99.90
18408;DHT22;9330;52.210;21.174;2023-05-09T00:09:04;3.40;99.90
18408;DHT22;9330;52.210;21.174;2023-05-09T00:11:30;3.40;99.90
18408;DHT22;9330;52.210;21.174;2023-05-09T00:13:58;3.50;99.90
18408;DHT22;9330;52.210;21.174;2023-05-09T00:16:25;3.40;99.90
18408;DHT22;9330;52.210;21.174;2023-05-09T00:18:53;3.40;99.90
18408;DHT22;9330;52.210;21.174;2023-05-09T00:21:20;3.40;99.90
18408;DHT22;9330;52.210;21.174;2023-05-09T00:23:47;3.30;99.90
18408;DHT22;9330;52.210;21.174;2023-05-09T00:26:14;3.30;99.90
18408;DHT22;9330;52.210;21.174;2023-05-09T00:28:41;3.40;99.90
18408;DHT22;9330;52.210;21.174;2023-05-09T00:31:09;3.30;99.90
18408;DHT22;9330;52.210;21.174;2023-05-09T00:33:36;3.30;99.90
18408;DHT22;9330;52.210;21.174;2023-05-09T00:36:03;3.30;99.90
18408;DHT22;9330;52.210;21.174;2023-05-09T00:38:30;3.30;99.90
18408;DHT22;9330;52.210;21.174;2023-05-09T00:40:57;3.20;99.90
18408;DHT22;9330;52.210;21.174;2023-05-09T00:43:24;3.20;99.90
18408;DHT22;9330;52.210;21.174;2023-05-09T00:45:51;3.20;99.90
18408;DHT22;9330;52.210;21.174;2023-05-09T00:48:20;3.20;99.90
18408;DHT22;9330;52.210;21.174;2023-05-09T00:50:48;3.10;99.90
18408;DHT22;9330;52.210;21.174;2023-05-09T00:53:17;3.10;99.90
18408;DHT22;9330;52.210;21.174;2023-05-09T00:55:44;3.00;99.90
18408;DHT22;9330;52.210;21.174;2023-05-09T00:58:11;3.00;99.90
18408;DHT22;9330;52.210;21.174;2023-05-09T01:00:38;2.90;99.90
18408;DHT22;9330;52.210;21.174;2023-05-09T01:03:06;2.90;99.90
18408;DHT22;9330;52.210;21.174;2023-05-09T01:05:39;2.90;99.90
18408;DHT22;9330;52.210;21.174;2023-05-09T01:08:14;2.80;99.90
18408;DHT22;9330;52.210;21.174;2023-05-09T01:10:50;2.90;99.90
18408;DHT22;9330;52.210;21.174;2023-05-09T01:13:27;2.80;99.90
18408;DHT22;9330;52.210;21.174;2023-05-09T01:16:00;2.80;99.90
18408;DHT22;9330;52.210;21.174;2023-05-09T01:18:34;2.70;99.90
18408;DHT22;9330;52.210;21.174;2023-05-09T01:21:07;2.70;99.90
18408;DHT22;9330;52.210;21.174;2023-05-09T01:24:05;2.60;99.90
18408;DHT22;9330;52.210;21.174;2023-05-09T01:26:43;2.60;99.90
18408;DHT22;9330;52.210;21.174;2023-05-09T01:29:35;2.50;99.90
18408;DHT22;9330;52.210;21.174;2023-05-09T01:32:05;2.50;99.90
18408;DHT22;9330;52.210;21.174;2023-05-09T01:34:34;2.60;99.90
18408;DHT22;9330;52.210;21.174;2023-05-09T01:37:04;2.60;99.90
18408;DHT22;9330;52.210;21.174;2023-05-09T01:39:33;2.50;99.90
18408;DHT22;9330;52.210;21.174;2023-05-09T01:42:07;2.60;99.90
18408;DHT22;9330;52.210;21.174;2023-05-09T01:44:38;2.60;99.90
18408;DHT22;9330;52.210;21.174;2023-05-09T01:47:06;2.50;99.90
18408;DHT22;9330;52.210;21.174;2023-05-09T01:49:35;2.40;99.90
18408;DHT22;9330;52.210;21.174;2023-05-09T01:52:06;2.30;99.90
18408;DHT22;9330;52.210;21.174;2023-05-09T01:54:34;2.30;99.90
18408;DHT22;9330;52.210;21.174;2023-05-09T01:57:02;2.30;99.90
18408;DHT22;9330;52.210;21.174;2023-05-09T01:59:31;2.20;99.90
18408;DHT22;9330;52.210;21.174;2023-05-09T02:02:00;2.30;99.90
18408;DHT22;9330;52.210;21.174;2023-05-09T02:04:29;2.20;99.90
18408;DHT22;9330;52.210;21.174;2023-05-09T02:06:58;2.20;99.90
18408;DHT22;9330;52.210;21.174;2023-05-09T02:09:25;2.30;99.90
18408;DHT22;9330;52.210;21.174;2023-05-09T02:11:53;2.10;99.90
18408;DHT22;9330;52.210;21.174;2023-05-09T02:14:20;2.10;99.90
18408;DHT22;9330;52.210;21.174;2023-05-09T02:16:47;2.10;99.90
18408;DHT22;9330;52.210;21.174;2023-05-09T02:19:15;2.20;99.90
18408;DHT22;9330;52.210;21.174;2023-05-09T02:21:42;2.00;99.90
18408;DHT22;9330;52.210;21.174;2023-05-09T02:24:09;1.90;99.90
18408;DHT22;9330;52.210;21.174;2023-05-09T02:26:37;2.00;99.90
18408;DHT22;9330;52.210;21.174;2023-05-09T02:29:06;2.00;99.90
18408;DHT22;9330;52.210;21.174;2023-05-09T02:31:34;2.00;99.90
18408;DHT22;9330;52.210;21.174;2023-05-09T02:34:02;2.00;99.90
18408;DHT22;9330;52.210;21.174;2023-05-09T02:36:31;1.80;99.90
18408;DHT22;9330;52.210;21.174;2023-05-09T02:39:00;1.80;99.90
18408;DHT22;9330;52.210;21.174;2023-05-09T02:41:27;1.80;99.90
18408;DHT22;9330;52.210;21.174;2023-05-09T02:43:55;1.80;99.90
18408;DHT22;9330;52.210;21.174;2023-05-09T02:46:22;1.70;99.90
18408;DHT22;9330;52.210;21.174;2023-05-09T02:48:49;1.80;99.90
18408;DHT22;9330;52.210;21.174;2023-05-09T02:51:16;1.70;99.90
18408;DHT22;9330;52.210;21.174;2023-05-09T02:53:44;1.80;99.90
18408;DHT22;9330;52.210;21.174;2023-05-09T02:56:11;1.70;99.90
18408;DHT22;9330;52.210;21.174;2023-05-09T02:58:38;1.60;99.90
18408;DHT22;9330;52.210;21.174;2023-05-09T03:01:05;1.60;99.90
18408;DHT22;9330;52.210;21.174;2023-05-09T03:03:32;1.60;99.90
18408;DHT22;9330;52.210;21.174;2023-05-09T03:05:59;1.70;99.90
18408;DHT22;9330;52.210;21.174;2023-05-09T03:08:26;1.60;99.90
18408;DHT22;9330;52.210;21.174;2023-05-09T03:10:54;1.60;99.90
18408;DHT22;9330;52.210;21.174;2023-05-09T03:13:21;1.60;99.90
18408;DHT22;9330;52.210;21.174;2023-05-09T03:15:48;1.60;99.90
18408;DHT22;9330;52.210;21.174;2023-05-09T03:18:15;1.60;99.90
18408;DHT22;9330;52.210;21.174;2023-05-09T03:20:42;1.60;99.90
18408;DHT22;9330;52.210;21.174;2023-05-09T03:23:08;1.60;99.90
18408;DHT22;9330;52.210;21.174;2023-05-09T03:25:35;1.60;99.90
18408;DHT22;9330;52.210;21.174;2023-05-09T03:28:04;1.60;99.90
18408;DHT22;9330;52.210;21.174;2023-05-09T03:30:30;1.60;99.90
18408;DHT22;9330;52.210;21.174;2023-05-09T03:32:57;1.60;99.90
18408;DHT22;9330;52.210;21.174;2023-05-09T03:35:24;1.60;99.90
18408;DHT22;9330;52.210;21.174;2023-05-09T03:37:51;1.70;99.90
18408;DHT22;9330;52.210;21.174;2023-05-09T03:40:18;1.60;99.90
18408;DHT22;9330;52.210;21.174;2023-05-09T03:42:45;1.90;99.90
18408;DHT22;9330;52.210;21.174;2023-05-09T03:45:13;1.80;99.90
18408;DHT22;9330;52.210;21.174;2023-05-09T03:47:40;1.80;99.90
18408;DHT22;9330;52.210;21.174;2023-05-09T03:50:08;1.80;99.90
18408;DHT22;9330;52.210;21.174;2023-05-09T03:52:35;1.90;99.90
18408;DHT22;9330;52.210;21.174;2023-05-09T03:55:03;2.10;99.90
18408;DHT22;9330;52.210;21.174;2023-05-09T03:57:30;2.00;99.90
18408;DHT22;9330;52.210;21.174;2023-05-09T03:59:57;2.20;99.90
18408;DHT22;9330;52.210;21.174;2023-05-09T04:02:25;2.30;99.90
18408;DHT22;9330;52.210;21.174;2023-05-09T04:04:52;2.30;99.90
18408;DHT22;9330;52.210;21.174;2023-05-09T04:07:19;2.40;99.90
18408;DHT22;9330;52.210;21.174;2023-05-09T04:09:46;2.50;99.90
18408;DHT22;9330;52.210;21.174;2023-05-09T04:12:14;2.70;99.90
18408;DHT22;9330;52.210;21.174;2023-05-09T04:14:40;2.80;99.90
18408;DHT22;9330;52.210;21.174;2023-05-09T04:17:07;2.80;99.90
18408;DHT22;9330;52.210;21.174;2023-05-09T04:19:36;3.00;99.90
18408;DHT22;9330;52.210;21.174;2023-05-09T04:22:02;3.20;99.90
18408;DHT22;9330;52.210;21.174;2023-05-09T04:24:29;3.30;99.90
18408;DHT22;9330;52.210;21.174;2023-05-09T04:26:56;3.50;99.90
18408;DHT22;9330;52.210;21.174;2023-05-09T04:29:23;3.70;99.90
18408;DHT22;9330;52.210;21.174;2023-05-09T04:31:50;3.80;99.90
18408;DHT22;9330;52.210;21.174;2023-05-09T04:34:17;4.00;99.90
18408;DHT22;9330;52.210;21.174;2023-05-09T04:36:45;4.10;99.90
18408;DHT22;9330;52.210;21.174;2023-05-09T04:39:12;4.30;99.90
18408;DHT22;9330;52.210;21.174;2023-05-09T04:41:39;4.40;99.90
18408;DHT22;9330;52.210;21.174;2023-05-09T04:44:09;4.70;99.90
18408;DHT22;9330;52.210;21.174;2023-05-09T04:46:36;4.70;99.90
18408;DHT22;9330;52.210;21.174;2023-05-09T04:49:02;4.80;99.90
18408;DHT22;9330;52.210;21.174;2023-05-09T04:51:29;5.00;99.90
18408;DHT22;9330;52.210;21.174;2023-05-09T04:53:57;5.20;99.90
18408;DHT22;9330;52.210;21.174;2023-05-09T04:56:24;5.30;99.90
18408;DHT22;9330;52.210;21.174;2023-05-09T04:58:51;5.40;99.90
18408;DHT22;9330;52.210;21.174;2023-05-09T05:01:18;5.50;99.90
18408;DHT22;9330;52.210;21.174;2023-05-09T05:03:45;5.70;99.90
18408;DHT22;9330;52.210;21.174;2023-05-09T05:06:12;5.90;99.90
18408;DHT22;9330;52.210;21.174;2023-05-09T05:08:39;6.00;99.90
18408;DHT22;9330;52.210;21.174;2023-05-09T05:11:07;6.20;99.90
18408;DHT22;9330;52.210;21.174;2023-05-09T05:13:34;6.30;99.90
18408;DHT22;9330;52.210;21.174;2023-05-09T05:16:00;6.50;99.90
18408;DHT22;9330;52.210;21.174;2023-05-09T05:18:27;6.70;99.90
18408;DHT22;9330;52.210;21.174;2023-05-09T05:20:54;6.90;99.90
18408;DHT22;9330;52.210;21.174;2023-05-09T05:23:21;7.10;99.90
18408;DHT22;9330;52.210;21.174;2023-05-09T05:25:48;7.20;99.90
18408;DHT22;9330;52.210;21.174;2023-05-09T05:28:16;7.50;99.90
18408;DHT22;9330;52.210;21.174;2023-05-09T05:30:43;7.70;99.90
18408;DHT22;9330;52.210;21.174;2023-05-09T05:33:10;7.90;99.90
18408;DHT22;9330;52.210;21.174;2023-05-09T05:35:37;8.10;99.90
18408;DHT22;9330;52.210;21.174;2023-05-09T05:38:03;8.40;99.90
18408;DHT22;9330;52.210;21.174;2023-05-09T05:40:30;8.50;99.90
18408;DHT22;9330;52.210;21.174;2023-05-09T05:42:57;8.70;99.90
18408;DHT22;9330;52.210;21.174;2023-05-09T05:45:25;9.00;99.90
18408;DHT22;9330;52.210;21.174;2023-05-09T05:47:54;9.20;99.90
18408;DHT22;9330;52.210;21.174;2023-05-09T05:50:21;9.50;99.90
18408;DHT22;9330;52.210;21.174;2023-05-09T05:52:48;9.70;99.90
18408;DHT22;9330;52.210;21.174;2023-05-09T05:55:14;9.90;99.90
18408;DHT22;9330;52.210;21.174;2023-05-09T05:57:41;10.20;99.90
18408;DHT22;9330;52.210;21.174;2023-05-09T06:00:09;10.40;99.90
18408;DHT22;9330;52.210;21.174;2023-05-09T06:02:37;10.60;99.90
18408;DHT22;9330;52.210;21.174;2023-05-09T06:05:05;10.90;99.40
18408;DHT22;9330;52.210;21.174;2023-05-09T06:07:33;11.20;96.10
18408;DHT22;9330;52.210;21.174;2023-05-09T06:09:59;11.50;96.60
18408;DHT22;9330;52.210;21.174;2023-05-09T06:12:26;11.70;92.20
18408;DHT22;9330;52.210;21.174;2023-05-09T06:14:53;12.00;92.50
18408;DHT22;9330;52.210;21.174;2023-05-09T06:17:20;12.30;84.30
18408;DHT22;9330;52.210;21.174;2023-05-09T06:19:48;12.60;80.20
18408;DHT22;9330;52.210;21.174;2023-05-09T06:22:15;12.80;78.90
18408;DHT22;9330;52.210;21.174;2023-05-09T06:24:42;13.10;78.30
18408;DHT22;9330;52.210;21.174;2023-05-09T06:27:08;13.30;59.10
18408;DHT22;9330;52.210;21.174;2023-05-09T06:29:35;13.60;61.20
18408;DHT22;9330;52.210;21.174;2023-05-09T06:32:02;13.80;60.20
18408;DHT22;9330;52.210;21.174;2023-05-09T06:34:29;14.00;55.40
18408;DHT22;9330;52.210;21.174;2023-05-09T06:36:58;14.10;49.70
18408;DHT22;9330;52.210;21.174;2023-05-09T06:39:24;14.30;48.00
18408;DHT22;9330;52.210;21.174;2023-05-09T06:41:51;14.40;47.10
18408;DHT22;9330;52.210;21.174;2023-05-09T06:44:18;14.50;46.60
18408;DHT22;9330;52.210;21.174;2023-05-09T06:46:45;14.70;43.70
18408;DHT22;9330;52.210;21.174;2023-05-09T06:49:12;14.80;44.90
18408;DHT22;9330;52.210;21.174;2023-05-09T06:51:39;14.80;42.80
18408;DHT22;9330;52.210;21.174;2023-05-09T06:54:07;15.00;43.60
18408;DHT22;9330;52.210;21.174;2023-05-09T06:56:34;15.00;39.40
18408;DHT22;9330;52.210;21.174;2023-05-09T06:59:02;15.10;38.10
18408;DHT22;9330;52.210;21.174;2023-05-09T07:01:28;15.30;40.80
18408;DHT22;9330;52.210;21.174;2023-05-09T07:03:55;15.30;38.30
18408;DHT22;9330;52.210;21.174;2023-05-09T07:06:23;15.50;42.70
18408;DHT22;9330;52.210;21.174;2023-05-09T07:08:50;15.60;43.20
18408;DHT22;9330;52.210;21.174;2023-05-09T07:11:18;15.80;39.80
18408;DHT22;9330;52.210;21.174;2023-05-09T07:13:45;15.80;38.20
18408;DHT22;9330;52.210;21.174;2023-05-09T07:16:12;15.90;36.90
18408;DHT22;9330;52.210;21.174;2023-05-09T07:18:39;15.90;34.90
18408;DHT22;9330;52.210;21.174;2023-05-09T07:21:06;16.00;35.50
18408;DHT22;9330;52.210;21.174;2023-05-09T07:23:32;16.20;38.20
18408;DHT22;9330;52.210;21.174;2023-05-09T07:25:59;16.30;33.40
18408;DHT22;9330;52.210;21.174;2023-05-09T07:28:28;16.30;34.90
18408;DHT22;9330;52.210;21.174;2023-05-09T07:30:54;16.40;32.80
18408;DHT22;9330;52.210;21.174;2023-05-09T07:33:21;16.30;32.20
18408;DHT22;9330;52.210;21.174;2023-05-09T07:35:48;16.40;32.60
18408;DHT22;9330;52.210;21.174;2023-05-09T07:38:17;16.50;32.90
18408;DHT22;9330;52.210;21.174;2023-05-09T07:40:44;16.60;34.30
18408;DHT22;9330;52.210;21.174;2023-05-09T07:43:11;16.70;34.10
18408;DHT22;9330;52.210;21.174;2023-05-09T07:45:39;16.80;35.20
18408;DHT22;9330;52.210;21.174;2023-05-09T07:48:06;16.90;31.60
18408;DHT22;9330;52.210;21.174;2023-05-09T07:50:33;16.80;30.10
18408;DHT22;9330;52.210;21.174;2023-05-09T07:53:00;16.80;34.30
18408;DHT22;9330;52.210;21.174;2023-05-09T07:55:27;16.70;29.70
18408;DHT22;9330;52.210;21.174;2023-05-09T07:57:54;16.80;30.20
18408;DHT22;9330;52.210;21.174;2023-05-09T08:00:21;16.80;30.90
18408;DHT22;9330;52.210;21.174;2023-05-09T08:02:50;16.80;30.20
18408;DHT22;9330;52.210;21.174;2023-05-09T08:05:17;16.80;29.90
18408;DHT22;9330;52.210;21.174;2023-05-09T08:07:44;16.90;28.00
18408;DHT22;9330;52.210;21.174;2023-05-09T08:10:11;16.80;27.00
18408;DHT22;9330;52.210;21.174;2023-05-09T08:12:38;16.80;28.80
18408;DHT22;9330;52.210;21.174;2023-05-09T08:15:06;16.80;28.00
18408;DHT22;9330;52.210;21.174;2023-05-09T08:17:33;16.60;26.90
18408;DHT22;9330;52.210;21.174;2023-05-09T08:20:02;16.60;29.20
18408;DHT22;9330;52.210;21.174;2023-05-09T08:22:31;16.80;30.90
18408;DHT22;9330;52.210;21.174;2023-05-09T08:24:57;16.90;27.20
18408;DHT22;9330;52.210;21.174;2023-05-09T08:27:24;16.80;28.50
18408;DHT22;9330;52.210;21.174;2023-05-09T08:29:51;16.70;26.00
18408;DHT22;9330;52.210;21.174;2023-05-09T08:32:18;16.60;27.00
18408;DHT22;9330;52.210;21.174;2023-05-09T08:34:45;16.80;29.60
18408;DHT22;9330;52.210;21.174;2023-05-09T08:37:13;16.80;28.60
18408;DHT22;9330;52.210;21.174;2023-05-09T08:39:40;16.90;30.10
18408;DHT22;9330;52.210;21.174;2023-05-09T08:42:08;17.00;27.90
18408;DHT22;9330;52.210;21.174;2023-05-09T08:44:35;17.00;28.60
18408;DHT22;9330;52.210;21.174;2023-05-09T08:47:03;17.10;27.90
18408;DHT22;9330;52.210;21.174;2023-05-09T08:49:30;17.20;28.30
18408;DHT22;9330;52.210;21.174;2023-05-09T08:51:58;17.20;28.60
18408;DHT22;9330;52.210;21.174;2023-05-09T08:54:27;17.20;27.80
18408;DHT22;9330;52.210;21.174;2023-05-09T08:56:54;17.30;27.70
18408;DHT22;9330;52.210;21.174;2023-05-09T08:59:22;17.30;27.50
18408;DHT22;9330;52.210;21.174;2023-05-09T09:01:50;17.50;27.70
18408;DHT22;9330;52.210;21.174;2023-05-09T09:04:18;17.40;27.90
18408;DHT22;9330;52.210;21.174;2023-05-09T09:06:46;17.50;28.10
18408;DHT22;9330;52.210;21.174;2023-05-09T09:09:14;17.30;27.80
18408;DHT22;9330;52.210;21.174;2023-05-09T09:11:43;17.40;26.70
18408;DHT22;9330;52.210;21.174;2023-05-09T09:14:12;17.30;27.30
18408;DHT22;9330;52.210;21.174;2023-05-09T09:16:43;17.50;29.40
18408;DHT22;9330;52.210;21.174;2023-05-09T09:19:12;17.60;27.10
18408;DHT22;9330;52.210;21.174;2023-05-09T09:21:43;17.60;27.10
18408;DHT22;9330;52.210;21.174;2023-05-09T09:24:12;17.60;26.30
18408;DHT22;9330;52.210;21.174;2023-05-09T09:26:46;17.60;29.00
18408;DHT22;9330;52.210;21.174;2023-05-09T09:29:13;17.60;28.50
18408;DHT22;9330;52.210;21.174;2023-05-09T09:31:43;17.60;27.30
18408;DHT22;9330;52.210;21.174;2023-05-09T09:34:11;17.60;27.10
18408;DHT22;9330;52.210;21.174;2023-05-09T09:36:39;17.60;26.90
18408;DHT22;9330;52.210;21.174;2023-05-09T09:39:06;17.50;26.50
18408;DHT22;9330;52.210;21.174;2023-05-09T09:41:34;17.60;26.30
18408;DHT22;9330;52.210;21.174;2023-05-09T09:44:09;17.70;26.10
18408;DHT22;9330;52.210;21.174;2023-05-09T09:46:41;17.70;26.50
18408;DHT22;9330;52.210;21.174;2023-05-09T09:49:08;17.80;27.40
18408;DHT22;9330;52.210;21.174;2023-05-09T09:51:35;17.90;27.70
18408;DHT22;9330;52.210;21.174;2023-05-09T09:54:02;18.00;27.90
18408;DHT22;9330;52.210;21.174;2023-05-09T09:56:38;18.00;27.10
18408;DHT22;9330;52.210;21.174;2023-05-09T09:59:11;18.10;25.90
18408;DHT22;9330;52.210;21.174;2023-05-09T10:02:02;17.90;26.20
18408;DHT22;9330;52.210;21.174;2023-05-09T10:04:32;17.90;27.40
18408;DHT22;9330;52.210;21.174;2023-05-09T10:07:00;17.90;26.90
18408;DHT22;9330;52.210;21.174;2023-05-09T10:09:30;17.70;26.80
18408;DHT22;9330;52.210;21.174;2023-05-09T10:12:01;17.70;27.00
18408;DHT22;9330;52.210;21.174;2023-05-09T10:14:30;17.50;27.30
18408;DHT22;9330;52.210;21.174;2023-05-09T10:16:57;17.60;27.40
18408;DHT22;9330;52.210;21.174;2023-05-09T10:19:26;17.50;27.00
18408;DHT22;9330;52.210;21.174;2023-05-09T10:21:56;17.60;26.70
18408;DHT22;9330;52.210;21.174;2023-05-09T10:24:27;17.50;26.70
18408;DHT22;9330;52.210;21.174;2023-05-09T10:27:00;17.50;27.20
18408;DHT22;9330;52.210;21.174;2023-05-09T10:29:34;17.50;27.40
18408;DHT22;9330;52.210;21.174;2023-05-09T10:32:07;17.50;28.90
18408;DHT22;9330;52.210;21.174;2023-05-09T10:34:39;17.50;27.40
18408;DHT22;9330;52.210;21.174;2023-05-09T10:37:08;17.40;26.80
18408;DHT22;9330;52.210;21.174;2023-05-09T10:39:35;17.40;26.80
18408;DHT22;9330;52.210;21.174;2023-05-09T10:42:03;17.40;26.50
18408;DHT22;9330;52.210;21.174;2023-05-09T10:44:32;17.30;26.20
18408;DHT22;9330;52.210;21.174;2023-05-09T10:47:00;17.30;27.60
18408;DHT22;9330;52.210;21.174;2023-05-09T10:49:27;17.30;28.40
18408;DHT22;9330;52.210;21.174;2023-05-09T10:51:54;17.50;27.00
18408;DHT22;9330;52.210;21.174;2023-05-09T10:54:26;17.50;27.40
18408;DHT22;9330;52.210;21.174;2023-05-09T10:56:53;17.50;25.90
18408;DHT22;9330;52.210;21.174;2023-05-09T10:59:36;17.40;26.20
18408;DHT22;9330;52.210;21.174;2023-05-09T11:02:05;17.40;26.60
18408;DHT22;9330;52.210;21.174;2023-05-09T11:04:32;17.40;26.50
18408;DHT22;9330;52.210;21.174;2023-05-09T11:06:59;17.50;27.40
18408;DHT22;9330;52.210;21.174;2023-05-09T11:09:33;17.40;25.80
18408;DHT22;9330;52.210;21.174;2023-05-09T11:12:09;17.40;26.80
18408;DHT22;9330;52.210;21.174;2023-05-09T11:14:43;17.40;27.60
18408;DHT22;9330;52.210;21.174;2023-05-09T11:17:12;17.60;26.70
18408;DHT22;9330;52.210;21.174;2023-05-09T11:19:59;17.70;26.70
18408;DHT22;9330;52.210;21.174;2023-05-09T11:22:27;17.70;26.60
18408;DHT22;9330;52.210;21.174;2023-05-09T11:25:02;17.80;26.80
18408;DHT22;9330;52.210;21.174;2023-05-09T11:27:37;18.00;27.20
18408;DHT22;9330;52.210;21.174;2023-05-09T11:30:07;18.30;27.90
18408;DHT22;9330;52.210;21.174;2023-05-09T11:32:41;18.40;25.00
18408;DHT22;9330;52.210;21.174;2023-05-09T11:35:10;18.40;25.60
18408;DHT22;9330;52.210;21.174;2023-05-09T11:37:43;18.70;25.50
18408;DHT22;9330;52.210;21.174;2023-05-09T11:40:12;19.10;26.80
18408;DHT22;9330;52.210;21.174;2023-05-09T11:42:41;19.20;26.30
18408;DHT22;9330;52.210;21.174;2023-05-09T11:45:11;19.40;26.20
18408;DHT22;9330;52.210;21.174;2023-05-09T11:47:39;19.60;26.00
18408;DHT22;9330;52.210;21.174;2023-05-09T11:50:07;19.70;25.40
18408;DHT22;9330;52.210;21.174;2023-05-09T11:52:35;19.70;26.90
18408;DHT22;9330;52.210;21.174;2023-05-09T11:55:04;20.00;26.90
18408;DHT22;9330;52.210;21.174;2023-05-09T11:57:31;20.20;25.80
18408;DHT22;9330;52.210;21.174;2023-05-09T11:59:59;20.30;25.40
18408;DHT22;9330;52.210;21.174;2023-05-09T12:02:28;20.40;24.60
18408;DHT22;9330;52.210;21.174;2023-05-09T12:04:55;20.30;26.20
18408;DHT22;9330;52.210;21.174;2023-05-09T12:07:22;20.30;24.50
18408;DHT22;9330;52.210;21.174;2023-05-09T12:09:50;20.30;26.20
18408;DHT22;9330;52.210;21.174;2023-05-09T12:12:17;20.40;25.00
18408;DHT22;9330;52.210;21.174;2023-05-09T12:14:47;20.50;26.00
18408;DHT22;9330;52.210;21.174;2023-05-09T12:17:14;20.30;24.70
18408;DHT22;9330;52.210;21.174;2023-05-09T12:19:43;20.10;24.50
18408;DHT22;9330;52.210;21.174;2023-05-09T12:22:10;20.20;25.00
18408;DHT22;9330;52.210;21.174;2023-05-09T12:24:37;20.50;25.70
18408;DHT22;9330;52.210;21.174;2023-05-09T12:27:04;20.50;24.70
18408;DHT22;9330;52.210;21.174;2023-05-09T12:29:32;20.40;25.70
18408;DHT22;9330;52.210;21.174;2023-05-09T12:32:00;20.10;24.40
18408;DHT22;9330;52.210;21.174;2023-05-09T12:34:27;19.90;26.30
18408;DHT22;9330;52.210;21.174;2023-05-09T12:36:55;19.60;26.40
18408;DHT22;9330;52.210;21.174;2023-05-09T12:39:24;19.70;26.00
18408;DHT22;9330;52.210;21.174;2023-05-09T12:41:51;19.60;25.00
18408;DHT22;9330;52.210;21.174;2023-05-09T12:44:20;19.50;25.00
18408;DHT22;9330;52.210;21.174;2023-05-09T12:46:58;19.50;24.90
18408;DHT22;9330;52.210;21.174;2023-05-09T12:49:25;19.60;25.60
18408;DHT22;9330;52.210;21.174;2023-05-09T12:51:55;19.60;25.60
18408;DHT22;9330;52.210;21.174;2023-05-09T12:54:23;19.80;25.80
18408;DHT22;9330;52.210;21.174;2023-05-09T12:56:52;19.70;25.20
18408;DHT22;9330;52.210;21.174;2023-05-09T12:59:21;19.60;25.20
18408;DHT22;9330;52.210;21.174;2023-05-09T13:01:53;19.60;25.70
18408;DHT22;9330;52.210;21.174;2023-05-09T13:04:22;19.60;25.00
18408;DHT22;9330;52.210;21.174;2023-05-09T13:06:50;19.70;24.80
18408;DHT22;9330;52.210;21.174;2023-05-09T13:09:20;19.60;26.50
18408;DHT22;9330;52.210;21.174;2023-05-09T13:11:48;19.90;25.80
18408;DHT22;9330;52.210;21.174;2023-05-09T13:14:15;19.80;24.50
18408;DHT22;9330;52.210;21.174;2023-05-09T13:16:43;19.70;25.00
18408;DHT22;9330;52.210;21.174;2023-05-09T13:19:10;19.50;24.70
18408;DHT22;9330;52.210;21.174;2023-05-09T13:21:38;19.40;24.90
18408;DHT22;9330;52.210;21.174;2023-05-09T13:24:05;19.60;25.60
18408;DHT22;9330;52.210;21.174;2023-05-09T13:26:34;19.70;26.30
18408;DHT22;9330;52.210;21.174;2023-05-09T13:29:01;19.70;25.60
18408;DHT22;9330;52.210;21.174;2023-05-09T13:31:28;19.70;25.30
18408;DHT22;9330;52.210;21.174;2023-05-09T13:33:55;19.50;25.20
18408;DHT22;9330;52.210;21.174;2023-05-09T13:36:22;19.20;25.30
18408;DHT22;9330;52.210;21.174;2023-05-09T13:38:49;18.90;25.40
18408;DHT22;9330;52.210;21.174;2023-05-09T13:41:16;18.60;25.10
18408;DHT22;9330;52.210;21.174;2023-05-09T13:43:57;18.40;25.70
18408;DHT22;9330;52.210;21.174;2023-05-09T13:46:24;18.30;26.10
18408;DHT22;9330;52.210;21.174;2023-05-09T13:48:51;18.20;26.60
18408;DHT22;9330;52.210;21.174;2023-05-09T13:51:18;18.10;26.10
18408;DHT22;9330;52.210;21.174;2023-05-09T13:53:46;18.00;25.60
18408;DHT22;9330;52.210;21.174;2023-05-09T13:56:13;17.90;25.60
18408;DHT22;9330;52.210;21.174;2023-05-09T13:58:40;17.90;26.00
18408;DHT22;9330;52.210;21.174;2023-05-09T14:01:08;18.00;25.20
18408;DHT22;9330;52.210;21.174;2023-05-09T14:03:35;17.90;25.70
18408;DHT22;9330;52.210;21.174;2023-05-09T14:06:03;17.80;25.30
18408;DHT22;9330;52.210;21.174;2023-05-09T14:08:30;17.70;25.60
18408;DHT22;9330;52.210;21.174;2023-05-09T14:10:56;17.90;26.40
18408;DHT22;9330;52.210;21.174;2023-05-09T14:13:23;17.80;25.90
18408;DHT22;9330;52.210;21.174;2023-05-09T14:15:52;17.80;26.80
18408;DHT22;9330;52.210;21.174;2023-05-09T14:18:20;17.80;26.80
18408;DHT22;9330;52.210;21.174;2023-05-09T14:20:47;17.80;26.00
18408;DHT22;9330;52.210;21.174;2023-05-09T14:23:14;17.60;26.60
18408;DHT22;9330;52.210;21.174;2023-05-09T14:25:41;17.60;26.40
18408;DHT22;9330;52.210;21.174;2023-05-09T14:28:08;17.60;26.20
18408;DHT22;9330;52.210;21.174;2023-05-09T14:30:35;17.50;26.80
18408;DHT22;9330;52.210;21.174;2023-05-09T14:33:02;17.60;26.10
18408;DHT22;9330;52.210;21.174;2023-05-09T14:35:30;17.50;26.40
18408;DHT22;9330;52.210;21.174;2023-05-09T14:37:58;17.60;26.80
18408;DHT22;9330;52.210;21.174;2023-05-09T14:40:25;17.50;26.50
18408;DHT22;9330;52.210;21.174;2023-05-09T14:42:56;17.60;26.60
18408;DHT22;9330;52.210;21.174;2023-05-09T14:45:23;17.40;26.90
18408;DHT22;9330;52.210;21.174;2023-05-09T14:47:50;17.40;26.20
18408;DHT22;9330;52.210;21.174;2023-05-09T14:50:18;17.20;26.30
18408;DHT22;9330;52.210;21.174;2023-05-09T14:52:48;17.20;26.80
18408;DHT22;9330;52.210;21.174;2023-05-09T14:55:15;17.10;26.20
18408;DHT22;9330;52.210;21.174;2023-05-09T14:57:42;17.00;26.40
18408;DHT22;9330;52.210;21.174;2023-05-09T15:00:10;17.00;26.70
18408;DHT22;9330;52.210;21.174;2023-05-09T15:02:38;16.90;26.50
18408;DHT22;9330;52.210;21.174;2023-05-09T15:05:07;16.80;26.10
18408;DHT22;9330;52.210;21.174;2023-05-09T15:07:34;16.80;26.90
18408;DHT22;9330;52.210;21.174;2023-05-09T15:10:03;16.70;26.50
18408;DHT22;9330;52.210;21.174;2023-05-09T15:12:30;16.70;27.50
18408;DHT22;9330;52.210;21.174;2023-05-09T15:15:00;16.80;27.20
18408;DHT22;9330;52.210;21.174;2023-05-09T15:17:37;16.70;27.40
18408;DHT22;9330;52.210;21.174;2023-05-09T15:20:04;16.70;27.00
18408;DHT22;9330;52.210;21.174;2023-05-09T15:22:31;16.70;27.20
18408;DHT22;9330;52.210;21.174;2023-05-09T15:24:59;16.70;27.50
18408;DHT22;9330;52.210;21.174;2023-05-09T15:27:27;16.70;26.60
18408;DHT22;9330;52.210;21.174;2023-05-09T15:29:55;16.70;26.60
18408;DHT22;9330;52.210;21.174;2023-05-09T15:32:22;16.60;27.00
18408;DHT22;9330;52.210;21.174;2023-05-09T15:34:49;16.60;27.40
18408;DHT22;9330;52.210;21.174;2023-05-09T15:37:15;16.60;26.50
18408;DHT22;9330;52.210;21.174;2023-05-09T15:39:43;16.50;27.50
18408;DHT22;9330;52.210;21.174;2023-05-09T15:42:10;16.40;27.50
18408;DHT22;9330;52.210;21.174;2023-05-09T15:44:39;16.40;27.60